Time;durP1;ratioP1;P1;durP2;ratioP2;P2;SDS_P1;SDS_P2;PMS_P1;PMS_P2;Temp;Humidity;BMP_temperature;BMP_pressure;BME280_temperature;BME280_humidity;BME280_pressure;Samples;Min_cycle;Max_cycle;Signal;HPM_P1;HPM_P2
2022/06/27 00:01:10;;;;;;;3.30;3.00;;;19.60;32.10;;;;;;5074027;28;20631;-69
2022/06/27 00:03:36;;;;;;;3.13;2.73;;;19.80;32.20;;;;;;5072280;28;20641;-70
2022/06/27 00:06:01;;;;;;;3.70;2.30;;;19.70;32.80;;;;;;5073474;28;20209;-68
2022/06/27 00:08:27;;;;;;;2.73;2.53;;;19.80;32.50;;;;;;5071917;28;20289;-68
2022/06/27 00:10:52;;;;;;;2.50;2.20;;;19.70;32.50;;;;;;5073860;28;20262;-68
2022/06/27 00:13:18;;;;;;;2.70;2.33;;;19.80;34.40;;;;;;5073440;28;20256;-71
2022/06/27 00:15:44;;;;;;;2.50;2.30;;;19.90;33.20;;;;;;5073234;28;20259;-68
2022/06/27 00:18:09;;;;;;;2.43;2.20;;;20.10;33.00;;;;;;5073360;28;20668;-68
2022/06/27 00:20:35;;;;;;;2.53;1.90;;;20.40;31.70;;;;;;5074091;28;20185;-67
2022/06/27 00:23:00;;;;;;;4.63;2.33;;;20.60;31.00;;;;;;5074091;28;20177;-68
2022/06/27 00:25:26;;;;;;;5.03;2.70;;;20.80;31.00;;;;;;5073490;28;20178;-67
2022/06/27 00:27:52;;;;;;;3.00;2.60;;;20.80;30.80;;;;;;5073616;28;20181;-67
2022/06/27 00:30:17;;;;;;;3.20;2.73;;;20.90;30.70;;;;;;5072959;28;20227;-67
2022/06/27 00:32:43;;;;;;;3.50;2.83;;;21.00;31.20;;;;;;5073730;28;20174;-68
2022/06/27 00:35:09;;;;;;;3.03;2.73;;;21.00;31.80;;;;;;5073958;28;20178;-68
2022/06/27 00:37:35;;;;;;;3.60;2.30;;;21.00;32.10;;;;;;5073372;28;20678;-68
2022/06/27 00:40:02;;;;;;;3.20;2.63;;;20.90;33.00;;;;;;5072536;28;20503;-70
2022/06/27 00:42:27;;;;;;;5.07;2.80;;;20.80;33.90;;;;;;5073012;28;20404;-69
2022/06/27 00:44:53;;;;;;;4.70;3.40;;;20.90;33.40;;;;;;5072511;28;20553;-70
2022/06/27 00:47:18;;;;;;;4.43;3.37;;;21.00;34.00;;;;;;5072404;28;20182;-68
2022/06/27 00:49:44;;;;;;;29.20;7.23;;;20.70;35.80;;;;;;5072470;28;20570;-71
2022/06/27 00:52:11;;;;;;;15.87;3.20;;;19.70;46.00;;;;;;5075118;28;20197;-74
2022/06/27 00:54:41;;;;;;;2.03;1.57;;;18.50;53.20;;;;;;5075459;28;20205;-75
2022/06/27 00:57:07;;;;;;;2.57;2.00;;;17.90;57.20;;;;;;5073090;28;20421;-76
2022/06/27 00:59:34;;;;;;;3.13;1.90;;;17.50;56.70;;;;;;5073808;28;20833;-76
2022/06/27 01:02:01;;;;;;;2.60;1.57;;;17.30;58.10;;;;;;5073096;28;20415;-77
2022/06/27 01:04:27;;;;;;;3.70;2.53;;;17.20;59.90;;;;;;5073001;28;20412;-76
2022/06/27 01:06:53;;;;;;;2.40;1.77;;;17.20;64.90;;;;;;5072747;28;20919;-76
2022/06/27 01:09:22;;;;;;;2.70;2.50;;;17.30;66.40;;;;;;5072738;28;20209;-77
2022/06/27 01:11:48;;;;;;;2.73;2.30;;;17.40;68.20;;;;;;5072086;28;20460;-76
2022/06/27 01:14:14;;;;;;;3.10;2.43;;;17.40;68.20;;;;;;5070952;28;20416;-76
2022/06/27 01:16:40;;;;;;;3.07;2.50;;;17.40;68.20;;;;;;5071235;28;20420;-75
2022/06/27 01:19:10;;;;;;;2.47;1.90;;;17.40;68.20;;;;;;5070500;28;20436;-75
2022/06/27 01:21:43;;;;;;;5.40;2.40;;;17.50;69.30;;;;;;5071205;28;20722;-77
2022/06/27 01:24:09;;;;;;;2.53;2.33;;;17.60;69.80;;;;;;5070934;28;20503;-75
2022/06/27 01:26:35;;;;;;;2.60;2.30;;;17.60;70.60;;;;;;5072293;28;20843;-75
2022/06/27 01:29:00;;;;;;;2.90;2.50;;;17.70;70.90;;;;;;5071723;28;20185;-74
2022/06/27 01:31:27;;;;;;;3.10;2.20;;;17.60;70.20;;;;;;5072309;28;20255;-75
2022/06/27 01:33:53;;;;;;;2.37;1.80;;;17.40;68.20;;;;;;5072234;28;20686;-75
2022/06/27 01:39:04;;;;;;;2.33;1.80;;;17.20;68.70;;;;;;5071719;28;20489;-75
2022/06/27 01:41:30;;;;;;;1.97;1.37;;;17.30;69.50;;;;;;5072398;28;20408;-75
2022/06/27 01:43:55;;;;;;;2.20;1.63;;;17.20;68.30;;;;;;5070645;28;20772;-75
2022/06/27 01:46:21;;;;;;;2.03;1.50;;;17.10;68.00;;;;;;5072024;28;20173;-75
2022/06/27 01:48:46;;;;;;;5.47;1.90;;;17.00;67.80;;;;;;5072081;28;20198;-75
2022/06/27 01:51:12;;;;;;;4.93;1.70;;;16.90;67.70;;;;;;5072146;28;20587;-74
2022/06/27 01:53:38;;;;;;;1.90;1.10;;;16.90;67.70;;;;;;5070960;28;20663;-74
2022/06/27 01:56:04;;;;;;;3.60;1.60;;;16.90;67.70;;;;;;5072067;28;20412;-73
2022/06/27 01:58:31;;;;;;;2.13;1.33;;;16.90;68.20;;;;;;5071562;28;20209;-72
2022/06/27 02:00:57;;;;;;;3.67;1.43;;;16.80;68.40;;;;;;5071994;28;20403;-71
2022/06/27 02:03:23;;;;;;;2.37;1.30;;;16.70;63.90;;;;;;5072339;28;20637;-71
2022/06/27 02:05:51;;;;;;;3.10;1.47;;;16.60;66.50;;;;;;5072068;28;20200;-71
2022/06/27 02:08:22;;;;;;;1.33;0.77;;;16.60;66.70;;;;;;5071739;28;20463;-70
2022/06/27 02:10:48;;;;;;;2.53;1.27;;;16.60;65.10;;;;;;5075701;28;20459;-70
2022/06/27 02:13:14;;;;;;;1.87;1.10;;;16.60;66.50;;;;;;5074668;28;20495;-71
2022/06/27 02:16:03;;;;;;;4.03;1.30;;;16.60;66.60;;;;;;5075843;28;20495;-70
2022/06/27 02:18:29;;;;;;;1.43;0.97;;;16.60;64.70;;;;;;5073995;28;20262;-70
2022/06/27 02:20:56;;;;;;;2.80;1.50;;;16.60;66.30;;;;;;5075787;28;20416;-69
2022/06/27 02:23:21;;;;;;;1.97;1.13;;;16.50;65.80;;;;;;5075740;28;20426;-70
2022/06/27 02:25:48;;;;;;;2.30;1.13;;;16.50;66.70;;;;;;5075780;28;20407;-70
2022/06/27 02:28:15;;;;;;;1.70;1.23;;;16.50;67.40;;;;;;5075041;28;20439;-70
2022/06/27 02:30:41;;;;;;;2.20;1.43;;;16.40;67.30;;;;;;5075541;28;20993;-73
2022/06/27 02:33:06;;;;;;;1.60;0.80;;;16.50;67.40;;;;;;5073947;28;20461;-70
2022/06/27 02:35:32;;;;;;;1.93;1.00;;;16.60;67.50;;;;;;5074134;28;20223;-70
2022/06/27 02:37:59;;;;;;;2.33;0.83;;;16.40;64.90;;;;;;5073502;28;20641;-70
2022/06/27 02:40:25;;;;;;;2.80;1.10;;;16.40;67.30;;;;;;5075375;28;20418;-70
2022/06/27 02:42:54;;;;;;;2.10;1.03;;;16.50;67.40;;;;;;5075130;28;20416;-70
2022/06/27 02:45:19;;;;;;;2.17;1.10;;;16.60;67.80;;;;;;5074914;28;20775;-69
2022/06/27 02:47:47;;;;;;;1.70;1.20;;;16.60;68.10;;;;;;5073652;28;20423;-69
2022/06/27 02:50:13;;;;;;;2.37;1.20;;;16.40;65.80;;;;;;5074635;28;20170;-69
2022/06/27 02:52:49;;;;;;;1.63;0.80;;;16.50;67.10;;;;;;5074973;28;20426;-71
2022/06/27 02:55:17;;;;;;;3.07;1.00;;;16.40;65.40;;;;;;5075015;28;20174;-69
2022/06/27 02:58:17;;;;;;;1.80;0.93;;;16.50;67.30;;;;;;5074952;28;20439;-69
2022/06/27 03:00:44;;;;;;;1.43;1.00;;;16.50;67.40;;;;;;5073513;28;20427;-69
2022/06/27 03:03:13;;;;;;;2.70;1.30;;;16.70;69.00;;;;;;5074876;28;20423;-69
2022/06/27 03:05:55;;;;;;;1.60;1.10;;;16.60;68.20;;;;;;5074668;28;20921;-71
2022/06/27 03:08:21;;;;;;;1.77;1.20;;;16.70;69.40;;;;;;5074374;28;20439;-70
2022/06/27 03:10:46;;;;;;;2.27;1.43;;;16.70;69.10;;;;;;5074471;28;20455;-69
2022/06/27 03:13:13;;;;;;;1.77;0.77;;;16.50;67.40;;;;;;5074269;28;20184;-69
2022/06/27 03:15:39;;;;;;;2.73;1.27;;;16.60;68.70;;;;;;5074537;28;20704;-69
2022/06/27 03:18:04;;;;;;;2.63;1.07;;;16.60;68.10;;;;;;5073344;28;20518;-68
2022/06/27 03:20:30;;;;;;;1.60;0.90;;;16.60;68.20;;;;;;5074371;28;20174;-68
2022/06/27 03:22:56;;;;;;;1.50;0.90;;;16.60;69.00;;;;;;5074462;28;20181;-69
2022/06/27 03:25:21;;;;;;;1.93;1.20;;;16.70;69.50;;;;;;5074461;28;20653;-68
2022/06/27 03:27:47;;;;;;;1.50;1.13;;;16.70;69.00;;;;;;5074145;28;20185;-68
2022/06/27 03:30:12;;;;;;;1.67;0.90;;;16.70;69.40;;;;;;5073918;28;20208;-69
2022/06/27 03:32:38;;;;;;;1.40;0.90;;;16.80;69.50;;;;;;5074149;28;20209;-69
2022/06/27 03:35:04;;;;;;;2.03;1.27;;;16.90;70.30;;;;;;5074223;28;20170;-69
2022/06/27 03:37:29;;;;;;;2.73;1.30;;;17.00;70.50;;;;;;5072720;28;20205;-69
2022/06/27 03:39:55;;;;;;;2.33;1.27;;;17.00;69.60;;;;;;5074066;28;20597;-66
2022/06/27 03:42:20;;;;;;;2.07;1.10;;;16.90;68.50;;;;;;5073948;28;20649;-67
2022/06/27 03:44:46;;;;;;;2.10;1.03;;;16.80;68.50;;;;;;5074248;28;20174;-67
2022/06/27 03:47:11;;;;;;;1.97;1.47;;;17.00;69.70;;;;;;5072583;28;20193;-67
2022/06/27 03:52:21;;;;;;;1.87;1.30;;;17.10;70.20;;;;;;5073726;28;20209;-66
2022/06/27 03:54:46;;;;;;;3.10;1.00;;;17.10;69.60;;;;;;5073582;28;20405;-67
2022/06/27 03:57:12;;;;;;;2.00;1.60;;;17.20;70.00;;;;;;5073647;28;20174;-67
2022/06/27 03:59:37;;;;;;;2.60;2.07;;;17.30;71.20;;;;;;5073729;28;20206;-70
2022/06/27 04:02:03;;;;;;;1.63;1.23;;;17.30;70.80;;;;;;5073630;28;20174;-69
2022/06/27 04:04:29;;;;;;;2.40;1.20;;;17.40;70.70;;;;;;5072419;28;20201;-69
2022/06/27 04:06:54;;;;;;;2.10;1.50;;;17.30;70.20;;;;;;5073614;28;20420;-69
2022/06/27 04:09:20;;;;;;;2.27;1.53;;;17.40;70.80;;;;;;5073237;28;20273;-69
2022/06/27 04:11:46;;;;;;;2.07;1.37;;;17.40;69.70;;;;;;5073526;28;20198;-70
2022/06/27 04:14:11;;;;;;;1.60;1.10;;;17.30;68.80;;;;;;5073615;28;20525;-69
2022/06/27 04:16:37;;;;;;;2.13;1.57;;;17.40;69.10;;;;;;5073467;28;20178;-69
2022/06/27 04:19:02;;;;;;;1.90;1.20;;;17.50;69.30;;;;;;5073153;28;20209;-69
2022/06/27 04:21:28;;;;;;;3.67;1.87;;;17.60;70.10;;;;;;5073288;28;20680;-70
2022/06/27 04:23:53;;;;;;;2.70;1.40;;;17.80;71.40;;;;;;5073407;28;20178;-70
2022/06/27 04:26:19;;;;;;;2.23;1.67;;;17.90;71.30;;;;;;5071861;28;20212;-70
2022/06/27 04:28:45;;;;;;;3.03;1.70;;;18.00;71.10;;;;;;5072832;28;20205;-69
2022/06/27 04:31:11;;;;;;;1.93;1.50;;;18.10;70.90;;;;;;5071509;28;20200;-69
2022/06/27 04:33:37;;;;;;;2.40;1.80;;;18.10;70.70;;;;;;5072967;28;20416;-70
2022/06/27 04:36:02;;;;;;;2.60;2.10;;;18.20;70.50;;;;;;5072823;28;20178;-71
2022/06/27 04:38:29;;;;;;;2.77;1.57;;;18.30;70.40;;;;;;5077602;28;20224;-73
2022/06/27 04:40:54;;;;;;;5.50;1.40;;;18.30;68.90;;;;;;5086758;28;20436;-69
2022/06/27 04:43:21;;;;;;;2.00;1.33;;;18.30;69.10;;;;;;5074112;28;20457;-70
2022/06/27 04:45:47;;;;;;;2.23;1.30;;;18.40;66.20;;;;;;5073821;28;20519;-70
2022/06/27 04:48:14;;;;;;;2.90;1.67;;;18.40;66.30;;;;;;5080139;28;20432;-71
2022/06/27 04:50:40;;;;;;;1.90;1.20;;;18.50;66.00;;;;;;5081118;28;20543;-70
2022/06/27 04:53:06;;;;;;;2.90;2.43;;;18.60;65.70;;;;;;5079470;28;20436;-71
2022/06/27 04:55:32;;;;;;;2.50;1.80;;;19.10;71.30;;;;;;5078835;28;21161;-72
2022/06/27 04:57:58;;;;;;;6.67;3.17;;;20.00;74.50;;;;;;5075806;28;20177;-71
2022/06/27 05:00:23;;;;;;;2.60;1.93;;;21.00;75.10;;;;;;5073067;28;20404;-72
2022/06/27 05:02:49;;;;;;;2.00;1.30;;;21.90;80.80;;;;;;5072944;28;20169;-72
2022/06/27 05:05:15;;;;;;;1.63;0.90;;;22.30;71.50;;;;;;5072865;28;20177;-71
2022/06/27 05:07:43;;;;;;;1.80;1.13;;;22.70;69.00;;;;;;5072411;28;20166;-71
2022/06/27 05:10:09;;;;;;;1.80;0.87;;;23.10;65.60;;;;;;5072385;28;20688;-72
2022/06/27 05:12:34;;;;;;;2.17;0.90;;;23.60;64.80;;;;;;5073642;28;20460;-72
2022/06/27 05:15:04;;;;;;;1.80;0.83;;;24.20;58.10;;;;;;5072398;28;20170;-72
2022/06/27 05:17:30;;;;;;;2.70;1.20;;;24.60;50.40;;;;;;5072698;28;20174;-70
2022/06/27 05:19:56;;;;;;;1.60;0.93;;;25.10;44.10;;;;;;5071956;28;20424;-70
2022/06/27 05:22:21;;;;;;;4.00;1.10;;;25.90;54.60;;;;;;5072305;28;20939;-70
2022/06/27 05:24:48;;;;;;;1.50;0.90;;;26.50;43.80;;;;;;5072274;28;20587;-71
2022/06/27 05:27:17;;;;;;;2.17;1.83;;;27.00;49.10;;;;;;5072163;28;20177;-73
2022/06/27 05:29:44;;;;;;;1.87;1.50;;;26.80;30.40;;;;;;5071597;28;20847;-70
2022/06/27 05:32:10;;;;;;;3.87;3.60;;;26.40;32.60;;;;;;5070843;28;20468;-69
2022/06/27 05:34:36;;;;;;;3.20;3.00;;;25.80;26.70;;;;;;5089779;28;20423;-69
2022/06/27 05:37:04;;;;;;;3.50;2.20;;;25.00;32.50;;;;;;5084060;28;20720;-69
2022/06/27 05:39:30;;;;;;;1.97;1.77;;;24.50;34.90;;;;;;5071559;28;20684;-69
2022/06/27 05:41:56;;;;;;;2.60;1.47;;;24.20;31.50;;;;;;5070702;28;20444;-70
2022/06/27 05:44:23;;;;;;;2.00;1.60;;;24.00;34.80;;;;;;5071718;28;20206;-70
2022/06/27 05:46:49;;;;;;;2.33;1.43;;;23.90;40.30;;;;;;5071987;28;20408;-74
2022/06/27 05:49:15;;;;;;;1.73;1.30;;;23.90;37.60;;;;;;5070266;28;20800;-69
2022/06/27 05:51:41;;;;;;;1.93;1.73;;;24.00;40.90;;;;;;5071846;28;20214;-69
2022/06/27 05:54:09;;;;;;;2.03;1.83;;;24.30;35.30;;;;;;5071809;28;20439;-69
2022/06/27 05:56:35;;;;;;;2.30;2.10;;;24.80;36.70;;;;;;5070677;28;20427;-70
2022/06/27 05:59:03;;;;;;;2.67;2.00;;;24.90;26.10;;;;;;5071224;28;20464;-68
2022/06/27 06:01:28;;;;;;;3.47;3.17;;;24.70;29.70;;;;;;5071715;28;20478;-70
2022/06/27 06:03:56;;;;;;;1.70;1.60;;;24.40;26.60;;;;;;5070373;28;20959;-69
2022/06/27 06:06:22;;;;;;;1.60;1.10;;;24.10;31.70;;;;;;5071793;28;20503;-69
2022/06/27 06:08:48;;;;;;;3.00;2.40;;;23.90;31.90;;;;;;5070002;28;20478;-69
2022/06/27 06:11:14;;;;;;;1.90;1.70;;;23.80;29.30;;;;;;5071545;28;20495;-70
2022/06/27 06:13:39;;;;;;;2.17;1.53;;;24.00;31.80;;;;;;5071730;28;20166;-69
2022/06/27 06:16:06;;;;;;;4.07;3.77;;;24.20;33.90;;;;;;5076694;28;20644;-68
2022/06/27 06:18:33;;;;;;;2.93;2.70;;;23.50;25.80;;;;;;5088392;28;20248;-68
2022/06/27 06:20:59;;;;;;;2.40;2.20;;;23.20;27.60;;;;;;5087720;28;20956;-68
2022/06/27 06:23:25;;;;;;;2.20;2.00;;;23.40;29.30;;;;;;5088172;28;20423;-66
2022/06/27 06:25:51;;;;;;;2.30;1.80;;;23.60;28.30;;;;;;5085342;28;20550;-69
2022/06/27 06:28:17;;;;;;;1.80;1.43;;;23.00;30.00;;;;;;5066916;28;20437;-69
2022/06/27 06:30:43;;;;;;;4.33;2.53;;;23.40;29.90;;;;;;5072847;28;20483;-66
2022/06/27 06:33:09;;;;;;;2.20;2.00;;;22.70;27.60;;;;;;5089570;28;20516;-69
2022/06/27 06:35:35;;;;;;;3.33;2.10;;;22.90;27.50;;;;;;5087531;28;20519;-68
2022/06/27 06:38:01;;;;;;;4.43;2.40;;;22.50;29.30;;;;;;5087499;28;20268;-68
2022/06/27 06:40:28;;;;;;;2.83;2.50;;;22.50;29.40;;;;;;5086182;28;21211;-68
2022/06/27 06:42:54;;;;;;;2.67;2.10;;;22.30;27.90;;;;;;5087526;28;20428;-67
2022/06/27 06:45:20;;;;;;;2.90;1.77;;;22.10;31.10;;;;;;5087014;28;20411;-67
2022/06/27 06:47:48;;;;;;;2.60;2.00;;;22.10;33.50;;;;;;5087410;28;20420;-68
2022/06/27 06:50:18;;;;;;;2.67;2.23;;;22.50;32.00;;;;;;5083736;28;20416;-68
2022/06/27 06:52:50;;;;;;;11.40;3.23;;;22.90;30.40;;;;;;5074493;28;20419;-70
2022/06/27 06:55:17;;;;;;;3.03;2.50;;;22.90;29.90;;;;;;5087178;28;20438;-69
2022/06/27 06:57:43;;;;;;;4.40;2.60;;;22.10;28.00;;;;;;5080872;28;20419;-68
2022/06/27 07:00:10;;;;;;;2.00;1.70;;;21.90;32.00;;;;;;5097919;28;20840;-68
2022/06/27 07:02:36;;;;;;;3.30;2.10;;;22.00;31.00;;;;;;5081759;28;20931;-68
2022/06/27 07:05:11;;;;;;;3.70;2.00;;;22.00;30.00;;;;;;5075295;28;20782;-67
2022/06/27 07:07:43;;;;;;;2.40;1.47;;;21.80;30.80;;;;;;5073575;28;20411;-69
2022/06/27 07:10:11;;;;;;;5.23;1.70;;;21.80;32.40;;;;;;5082381;28;20453;-69
2022/06/27 07:12:38;;;;;;;1.93;1.60;;;21.80;32.90;;;;;;5095860;28;20906;-69
2022/06/27 07:15:05;;;;;;;2.60;1.80;;;21.50;30.50;;;;;;5099260;28;20445;-69
2022/06/27 07:17:42;;;;;;;2.43;1.70;;;21.60;32.20;;;;;;5075306;28;20419;-69
2022/06/27 07:20:09;;;;;;;2.63;1.60;;;21.90;33.30;;;;;;5075416;28;20935;-67
2022/06/27 07:22:35;;;;;;;1.80;1.47;;;22.20;31.20;;;;;;5078249;28;20498;-67
2022/06/27 07:25:01;;;;;;;2.80;1.47;;;22.50;31.40;;;;;;5094414;28;20449;-67
2022/06/27 07:27:27;;;;;;;2.37;1.70;;;23.20;32.30;;;;;;5073752;28;20424;-69
2022/06/27 07:29:52;;;;;;;2.50;2.30;;;24.40;31.50;;;;;;5072691;28;20669;-68
2022/06/27 07:32:18;;;;;;;3.50;3.20;;;25.00;27.30;;;;;;5074055;28;20210;-68
2022/06/27 07:34:43;;;;;;;7.63;3.60;;;25.90;27.00;;;;;;5094241;28;20193;-69
2022/06/27 07:37:10;;;;;;;4.27;4.07;;;27.00;29.10;;;;;;5092960;28;20649;-69
2022/06/27 07:39:35;;;;;;;10.30;9.90;;;28.60;21.10;;;;;;5093267;28;20664;-69
2022/06/27 07:42:01;;;;;;;10.30;9.70;;;29.70;16.40;;;;;;5094568;28;20461;-68
2022/06/27 07:44:27;;;;;;;13.80;13.10;;;30.70;18.50;;;;;;5093185;28;20193;-68
2022/06/27 07:46:53;;;;;;;14.37;13.80;;;31.40;13.40;;;;;;5087099;28;20802;-69
2022/06/27 07:49:18;;;;;;;15.00;14.40;;;31.60;13.30;;;;;;5093976;28;20306;-70
2022/06/27 07:51:47;;;;;;;14.83;14.33;;;31.60;13.40;;;;;;5089784;28;20204;-70
2022/06/27 07:54:13;;;;;;;15.40;14.60;;;31.30;9.70;;;;;;5093499;28;20181;-69
2022/06/27 07:56:39;;;;;;;14.40;13.80;;;31.30;12.20;;;;;;5079975;28;20427;-69
2022/06/27 07:59:10;;;;;;;15.30;14.70;;;31.20;10.80;;;;;;5071843;28;20255;-69
2022/06/27 08:01:36;;;;;;;16.10;15.50;;;31.30;12.30;;;;;;5074603;28;20515;-68
2022/06/27 08:04:02;;;;;;;15.33;14.73;;;31.30;9.70;;;;;;5072874;28;20420;-68
2022/06/27 08:06:28;;;;;;;16.10;15.40;;;29.80;13.50;;;;;;5080428;28;20424;-68
2022/06/27 08:09:00;;;;;;;15.87;15.17;;;29.60;11.20;;;;;;5073144;28;20493;-69
2022/06/27 08:11:33;;;;;;;16.77;15.97;;;29.70;13.40;;;;;;5072298;28;20467;-68
2022/06/27 08:14:03;;;;;;;14.30;13.80;;;30.10;12.60;;;;;;5073839;28;20435;-69
2022/06/27 08:16:30;;;;;;;15.93;15.33;;;30.70;9.30;;;;;;5083907;28;20419;-69
2022/06/27 08:18:56;;;;;;;15.93;15.33;;;30.70;11.80;;;;;;5076834;28;20465;-69
2022/06/27 08:21:25;;;;;;;16.60;16.00;;;30.90;11.80;;;;;;5088300;28;20431;-69
2022/06/27 08:23:56;;;;;;;14.90;14.30;;;30.70;11.30;;;;;;5091846;28;20475;-69
2022/06/27 08:26:23;;;;;;;14.63;13.93;;;30.40;11.50;;;;;;5082073;28;20862;-68
2022/06/27 08:28:50;;;;;;;16.30;14.80;;;30.00;13.60;;;;;;5073966;28;20500;-69
2022/06/27 08:31:17;;;;;;;16.30;15.60;;;30.40;12.90;;;;;;5074862;28;20487;-68
2022/06/27 08:33:45;;;;;;;16.10;15.40;;;30.30;9.70;;;;;;5079515;28;20411;-69
2022/06/27 08:36:12;;;;;;;15.40;14.80;;;29.90;10.00;;;;;;5082380;28;20427;-70
2022/06/27 08:38:50;;;;;;;14.67;14.17;;;28.60;11.30;;;;;;5091813;28;20442;-69
2022/06/27 08:41:21;;;;;;;16.17;14.83;;;27.90;12.50;;;;;;5072062;28;20432;-70
2022/06/27 08:43:48;;;;;;;13.63;13.13;;;27.80;13.80;;;;;;5082349;28;20423;-68
2022/06/27 08:46:18;;;;;;;15.80;14.60;;;28.20;14.20;;;;;;5092231;28;20439;-68
2022/06/27 08:48:45;;;;;;;15.20;14.13;;;28.70;13.60;;;;;;5089760;28;20792;-68
2022/06/27 08:51:12;;;;;;;15.40;14.80;;;29.30;12.70;;;;;;5076199;28;20502;-68
2022/06/27 08:53:38;;;;;;;15.60;15.00;;;29.80;12.10;;;;;;5092408;28;20419;-69
2022/06/27 08:56:10;;;;;;;15.53;14.93;;;30.10;10.60;;;;;;5090723;28;20423;-69
2022/06/27 08:58:36;;;;;;;16.20;15.40;;;30.00;9.90;;;;;;5081665;28;20562;-70
2022/06/27 09:01:03;;;;;;;15.70;15.00;;;29.70;10.60;;;;;;5080274;28;20446;-68
2022/06/27 09:03:29;;;;;;;15.20;14.60;;;29.50;10.70;;;;;;5081225;28;20428;-68
2022/06/27 09:05:57;;;;;;;15.77;14.87;;;29.10;12.10;;;;;;5078666;28;20934;-68
2022/06/27 09:08:25;;;;;;;14.20;13.60;;;28.70;12.30;;;;;;5085502;28;21020;-68
2022/06/27 09:10:51;;;;;;;14.30;13.80;;;28.30;12.30;;;;;;5089865;28;20545;-69
2022/06/27 09:13:17;;;;;;;13.77;13.20;;;27.70;12.10;;;;;;5093851;28;20416;-69
2022/06/27 09:15:49;;;;;;;12.90;12.40;;;26.90;12.00;;;;;;5092554;28;20446;-69
2022/06/27 09:18:18;;;;;;;11.57;11.07;;;26.10;14.70;;;;;;5092265;28;20454;-69
2022/06/27 09:21:07;;;;;;;11.63;11.13;;;25.40;15.20;;;;;;5093020;28;20427;-68
2022/06/27 09:23:45;;;;;;;11.13;10.53;;;25.00;16.90;;;;;;5072988;28;20427;-69
2022/06/27 09:26:20;;;;;;;9.03;8.43;;;24.60;17.20;;;;;;5072658;28;20423;-69
2022/06/27 09:28:48;;;;;;;9.63;9.03;;;24.40;18.80;;;;;;5090559;28;20453;-71
2022/06/27 09:31:30;;;;;;;8.40;8.10;;;24.80;17.80;;;;;;5092612;28;20996;-71
2022/06/27 09:34:12;;;;;;;6.93;6.63;;;24.50;18.90;;;;;;5086779;28;20427;-70
2022/06/27 09:36:41;;;;;;;8.53;8.13;;;24.20;19.40;;;;;;5072984;28;20462;-69
2022/06/27 09:39:17;;;;;;;8.07;7.67;;;24.50;19.00;;;;;;5071715;28;20440;-69
2022/06/27 09:41:45;;;;;;;10.10;9.13;;;24.80;19.30;;;;;;5082035;28;20492;-69
2022/06/27 09:44:15;;;;;;;9.83;9.43;;;25.30;16.90;;;;;;5091923;28;20953;-70
2022/06/27 09:46:50;;;;;;;10.77;10.27;;;25.60;15.70;;;;;;5079901;28;20931;-70
2022/06/27 09:49:15;;;;;;;9.50;9.10;;;25.90;15.00;;;;;;5074023;28;20467;-70
2022/06/27 09:51:42;;;;;;;11.60;10.63;;;25.80;16.00;;;;;;5085128;28;20510;-70
2022/06/27 09:54:11;;;;;;;10.77;10.27;;;26.00;15.70;;;;;;5080580;28;20283;-70
2022/06/27 09:56:39;;;;;;;9.53;9.03;;;25.60;14.20;;;;;;5074985;28;20416;-69
2022/06/27 09:59:12;;;;;;;8.30;7.90;;;25.00;16.60;;;;;;5093011;23;20836;-69
2022/06/27 10:01:41;;;;;;;7.20;6.70;;;24.60;17.90;;;;;;5071648;28;20416;-70
2022/06/27 10:04:07;;;;;;;6.83;6.50;;;24.30;19.20;;;;;;5071586;28;20400;-69
2022/06/27 10:06:35;;;;;;;5.53;5.23;;;24.10;19.30;;;;;;5057152;28;20520;-69
2022/06/27 10:09:04;;;;;;;5.50;5.20;;;23.70;20.70;;;;;;5049899;28;20464;-71
2022/06/27 10:11:29;;;;;;;5.20;4.90;;;24.00;20.00;;;;;;5049740;28;20448;-71
2022/06/27 10:14:21;;;;;;;5.40;5.10;;;23.70;20.40;;;;;;5049762;28;20430;-70
2022/06/27 10:16:58;;;;;;;4.17;3.83;;;23.90;20.70;;;;;;5049349;28;20175;-70
2022/06/27 10:19:26;;;;;;;4.00;3.80;;;23.70;22.20;;;;;;5049191;28;20515;-69
2022/06/27 10:21:52;;;;;;;4.30;3.90;;;23.90;21.20;;;;;;5049352;28;20405;-70
2022/06/27 10:24:28;;;;;;;4.20;3.83;;;23.80;22.00;;;;;;5049896;28;20466;-70
2022/06/27 10:26:56;;;;;;;5.80;3.00;;;23.70;22.50;;;;;;5051936;28;20474;-70
2022/06/27 10:29:28;;;;;;;2.60;2.40;;;23.10;23.20;;;;;;5051226;28;20535;-71
2022/06/27 10:31:54;;;;;;;2.70;2.50;;;22.90;24.40;;;;;;5055900;28;20448;-70
2022/06/27 10:34:37;;;;;;;2.93;2.67;;;22.60;25.30;;;;;;5055813;28;20500;-71
2022/06/27 10:37:24;;;;;;;2.13;1.93;;;22.40;25.50;;;;;;5055814;28;20405;-72
2022/06/27 10:39:50;;;;;;;2.13;1.77;;;21.90;27.00;;;;;;5055137;28;20494;-71
2022/06/27 10:42:43;;;;;;;2.87;1.90;;;21.90;27.00;;;;;;5055444;28;20817;-71
2022/06/27 10:45:20;;;;;;;2.10;1.90;;;22.00;26.60;;;;;;5055500;28;20416;-70
2022/06/27 10:47:50;;;;;;;2.40;1.40;;;22.00;26.60;;;;;;5055804;28;20822;-69
2022/06/27 10:50:18;;;;;;;5.70;2.13;;;22.10;26.70;;;;;;5055102;28;21023;-70
2022/06/27 10:52:44;;;;;;;2.60;2.00;;;22.40;26.20;;;;;;5055821;28;20527;-70
2022/06/27 10:55:23;;;;;;;4.17;2.17;;;22.70;25.50;;;;;;5055918;28;20917;-70
2022/06/27 10:57:50;;;;;;;2.60;2.40;;;22.90;25.20;;;;;;5055304;28;20466;-70
2022/06/27 11:00:34;;;;;;;2.60;2.40;;;23.00;23.90;;;;;;5054615;28;20444;-71
2022/06/27 11:03:00;;;;;;;2.57;2.37;;;22.80;24.80;;;;;;5055337;28;20417;-70
2022/06/27 11:05:28;;;;;;;3.60;3.13;;;23.00;23.00;;;;;;5055425;28;20413;-70
2022/06/27 11:07:54;;;;;;;4.20;3.80;;;23.10;22.00;;;;;;5055074;28;20415;-70
2022/06/27 11:10:21;;;;;;;4.13;3.63;;;23.20;21.70;;;;;;5054871;28;20429;-69
2022/06/27 11:12:47;;;;;;;4.03;3.80;;;23.30;20.80;;;;;;5055559;28;20249;-68
2022/06/27 11:15:13;;;;;;;3.60;3.40;;;23.30;20.60;;;;;;5055621;28;20413;-70
2022/06/27 11:17:41;;;;;;;3.10;2.90;;;23.00;22.10;;;;;;5056479;28;20193;-66
2022/06/27 11:20:11;;;;;;;3.60;3.13;;;22.90;22.60;;;;;;5055636;28;20194;-69
2022/06/27 11:22:38;;;;;;;2.63;2.10;;;22.60;23.30;;;;;;5054967;28;20504;-68
2022/06/27 11:25:04;;;;;;;2.60;2.27;;;21.90;25.00;;;;;;5055038;28;20459;-69
2022/06/27 11:33:36;;;;;;;2.67;2.47;;;22.40;24.10;;;;;;5054625;28;20416;-68
2022/06/27 11:36:03;;;;;;;2.50;2.30;;;22.30;24.10;;;;;;5054696;28;20416;-68
2022/06/27 11:38:32;;;;;;;3.13;2.50;;;22.20;24.50;;;;;;5054198;28;20459;-68
2022/06/27 11:41:08;;;;;;;2.67;2.47;;;22.10;24.60;;;;;;5054071;28;20421;-69
2022/06/27 11:44:01;;;;;;;2.93;2.60;;;22.10;24.90;;;;;;5054945;28;20412;-69
2022/06/27 11:46:40;;;;;;;2.27;2.07;;;22.00;25.30;;;;;;5054801;28;20424;-69
2022/06/27 11:49:11;;;;;;;2.77;2.13;;;22.10;25.10;;;;;;5054378;28;20517;-68
2022/06/27 11:51:37;;;;;;;3.03;2.30;;;22.20;25.00;;;;;;5054228;28;20480;-68
2022/06/27 11:54:14;;;;;;;2.30;2.10;;;22.20;24.90;;;;;;5054766;28;20915;-68
2022/06/27 11:56:41;;;;;;;2.70;2.50;;;22.20;24.60;;;;;;5054573;28;20405;-68
2022/06/27 11:59:10;;;;;;;3.43;2.40;;;22.30;24.80;;;;;;5053129;28;20491;-69
2022/06/27 12:01:56;;;;;;;2.40;2.20;;;22.50;24.10;;;;;;5053554;28;20462;-68
2022/06/27 12:04:27;;;;;;;4.07;2.70;;;22.60;24.10;;;;;;5053693;28;20432;-69
2022/06/27 12:06:58;;;;;;;2.50;2.30;;;22.60;23.80;;;;;;5053297;28;20413;-70
2022/06/27 12:09:26;;;;;;;2.87;2.67;;;22.20;24.10;;;;;;5052986;28;20491;-68
2022/06/27 12:11:59;;;;;;;2.83;2.53;;;22.30;23.60;;;;;;5053709;28;20480;-69
2022/06/27 12:14:26;;;;;;;3.43;3.13;;;22.40;24.10;;;;;;5053422;28;20666;-70
2022/06/27 12:16:54;;;;;;;4.00;3.10;;;22.60;22.50;;;;;;5053420;28;20416;-69
2022/06/27 12:19:20;;;;;;;6.70;2.87;;;22.50;22.90;;;;;;5052814;28;20536;-69
2022/06/27 12:21:46;;;;;;;2.60;2.40;;;22.40;23.30;;;;;;5052114;28;20802;-70
2022/06/27 12:24:12;;;;;;;3.17;2.97;;;22.70;23.00;;;;;;5053447;28;20826;-70
2022/06/27 12:26:38;;;;;;;3.23;3.03;;;22.80;22.80;;;;;;5053385;28;20401;-69
2022/06/27 12:29:05;;;;;;;7.97;3.53;;;22.80;22.80;;;;;;5052800;28;20437;-69
2022/06/27 12:31:32;;;;;;;2.73;2.53;;;22.30;23.30;;;;;;5054279;28;20228;-69
2022/06/27 12:33:57;;;;;;;2.30;2.10;;;22.20;24.40;;;;;;5053235;28;20964;-69
2022/06/27 12:36:23;;;;;;;3.63;2.83;;;21.90;25.30;;;;;;5053269;28;20528;-69
2022/06/27 12:38:48;;;;;;;2.70;2.30;;;21.70;26.10;;;;;;5053181;28;20253;-68
2022/06/27 12:41:15;;;;;;;2.53;1.80;;;21.50;26.60;;;;;;5053378;28;20201;-69
2022/06/27 12:43:42;;;;;;;11.30;2.53;;;21.40;27.50;;;;;;5053921;28;20175;-69
2022/06/27 12:46:08;;;;;;;1.97;1.63;;;21.30;28.30;;;;;;5055079;28;20411;-68
2022/06/27 12:48:34;;;;;;;3.70;1.73;;;21.00;29.30;;;;;;5053598;28;20803;-68
2022/06/27 12:51:00;;;;;;;3.27;2.10;;;21.00;29.90;;;;;;5051929;28;20463;-67
2022/06/27 12:53:26;;;;;;;3.77;2.10;;;21.00;30.00;;;;;;5052127;28;20177;-68
2022/06/27 12:55:52;;;;;;;2.30;1.90;;;21.20;29.20;;;;;;5052662;28;20409;-68
2022/06/27 12:58:18;;;;;;;2.03;1.70;;;21.20;29.00;;;;;;5052008;28;20174;-67